createdAt,value
2023-03-29T00:02:14.661Z,2.47
2023-03-29T00:04:41.673Z,2.53
2023-03-29T00:07:09.358Z,2.08
2023-03-29T00:09:36.537Z,2.40
2023-03-29T00:12:03.573Z,2.85
2023-03-29T00:14:31.123Z,2.35
2023-03-29T00:16:59.211Z,2.70
2023-03-29T00:19:26.661Z,3.08
2023-03-29T00:21:53.756Z,2.60
2023-03-29T00:24:23.952Z,2.70
2023-03-29T00:26:51.121Z,2.67
2023-03-29T00:29:18.198Z,3.13
2023-03-29T00:31:51.439Z,2.40
2023-03-29T00:34:18.517Z,2.53
2023-03-29T00:36:45.700Z,2.30
2023-03-29T00:39:12.627Z,3.38
2023-03-29T00:41:39.578Z,3.28
2023-03-29T00:44:06.633Z,2.67
2023-03-29T00:46:34.979Z,2.55
2023-03-29T00:49:12.722Z,2.90
2023-03-29T00:51:41.792Z,3.05
2023-03-29T00:54:14.764Z,2.72
2023-03-29T00:56:44.935Z,2.85
2023-03-29T00:59:12.272Z,3.03
2023-03-29T01:01:57.068Z,2.72
2023-03-29T01:04:45.417Z,2.80
2023-03-29T01:07:21.220Z,3.08
2023-03-29T01:09:54.218Z,2.97
2023-03-29T01:12:27.573Z,2.95
2023-03-29T01:15:09.071Z,2.83
2023-03-29T01:17:36.308Z,2.70
2023-03-29T01:20:35.642Z,3.20
2023-03-29T01:23:16.956Z,3.08
2023-03-29T01:26:21.153Z,3.10
2023-03-29T01:29:33.788Z,2.83
2023-03-29T01:32:08.945Z,2.90
2023-03-29T01:34:55.503Z,2.70
2023-03-29T01:37:57.569Z,2.80
2023-03-29T01:40:28.126Z,3.83
2023-03-29T01:43:13.450Z,3.25
2023-03-29T01:45:48.510Z,2.58
2023-03-29T01:48:32.510Z,2.65
2023-03-29T01:51:18.599Z,2.70
2023-03-29T01:54:02.820Z,3.10
2023-03-29T01:56:31.016Z,2.83
2023-03-29T01:59:04.955Z,2.75
2023-03-29T02:01:38.571Z,3.00
2023-03-29T02:04:11.167Z,2.97
2023-03-29T02:06:39.701Z,2.67
2023-03-29T02:09:07.302Z,3.10
2023-03-29T02:11:36.219Z,3.22
2023-03-29T02:14:03.575Z,3.03
2023-03-29T02:16:36.493Z,2.90
2023-03-29T02:19:04.079Z,3.10
2023-03-29T02:21:40.886Z,3.28
2023-03-29T02:24:13.376Z,3.03
2023-03-29T02:26:40.802Z,2.72
2023-03-29T02:29:07.977Z,3.25
2023-03-29T02:31:43.002Z,2.80
2023-03-29T02:34:28.877Z,3.47
2023-03-29T02:37:03.908Z,3.45
2023-03-29T02:39:33.776Z,3.40
2023-03-29T02:42:02.625Z,3.17
2023-03-29T02:44:32.730Z,3.22
2023-03-29T02:47:11.208Z,3.20
2023-03-29T02:49:39.437Z,3.45
2023-03-29T02:52:16.070Z,2.92
2023-03-29T02:54:45.952Z,3.17
2023-03-29T02:57:13.430Z,3.35
2023-03-29T02:59:43.826Z,3.38
2023-03-29T03:02:14.192Z,3.30
2023-03-29T03:04:43.269Z,3.38
2023-03-29T03:07:10.244Z,3.63
2023-03-29T03:09:37.306Z,3.20
2023-03-29T03:12:04.351Z,2.55
2023-03-29T03:14:31.316Z,3.70
2023-03-29T03:17:03.924Z,3.78
2023-03-29T03:19:31.987Z,3.60
2023-03-29T03:21:59.707Z,3.58
2023-03-29T03:24:28.110Z,4.07
2023-03-29T03:26:56.734Z,3.42
2023-03-29T03:29:25.664Z,3.38
2023-03-29T03:32:12.407Z,3.45
2023-03-29T03:35:18.094Z,3.58
2023-03-29T03:37:45.960Z,3.78
2023-03-29T03:40:13.899Z,3.17
2023-03-29T03:42:41.593Z,3.33
2023-03-29T03:45:10.635Z,4.07
2023-03-29T03:47:37.930Z,3.47
2023-03-29T03:50:19.520Z,3.50
2023-03-29T03:52:46.934Z,3.47
2023-03-29T03:55:14.560Z,3.63
2023-03-29T03:57:52.036Z,3.22
2023-03-29T04:00:20.391Z,3.35
2023-03-29T04:02:58.168Z,3.78
2023-03-29T04:05:25.782Z,3.83
2023-03-29T04:07:56.135Z,3.10
2023-03-29T04:10:35.617Z,3.70
2023-03-29T04:13:09.789Z,3.05
2023-03-29T04:15:59.436Z,3.88
2023-03-29T04:18:28.276Z,3.58
2023-03-29T04:20:58.279Z,3.53
2023-03-29T04:23:26.781Z,3.80
2023-03-29T04:25:56.601Z,3.47
2023-03-29T04:28:47.891Z,3.25
2023-03-29T04:31:20.596Z,3.72
2023-03-29T04:34:13.596Z,3.70
2023-03-29T04:36:40.583Z,3.42
2023-03-29T04:39:18.055Z,3.80
2023-03-29T04:41:47.310Z,3.83
2023-03-29T04:44:19.806Z,4.47
2023-03-29T04:46:46.810Z,3.80
2023-03-29T04:49:17.056Z,4.35
2023-03-29T04:51:47.881Z,3.63
2023-03-29T04:54:17.881Z,4.63
2023-03-29T04:57:08.753Z,4.05
2023-03-29T04:59:55.067Z,4.00
2023-03-29T05:02:44.227Z,3.67
2023-03-29T05:05:13.952Z,3.95
2023-03-29T05:07:41.754Z,4.32
2023-03-29T05:10:11.712Z,3.83
2023-03-29T05:12:38.809Z,3.92
2023-03-29T05:15:06.333Z,4.00
2023-03-29T05:17:33.624Z,4.38
2023-03-29T05:20:09.728Z,5.22
2023-03-29T05:22:38.305Z,4.10
2023-03-29T05:25:08.573Z,4.53
2023-03-29T05:27:35.757Z,4.20
2023-03-29T05:30:09.272Z,4.63
2023-03-29T05:32:56.562Z,5.00
2023-03-29T05:35:26.315Z,4.25
2023-03-29T05:37:56.357Z,3.92
2023-03-29T05:40:26.177Z,3.40
2023-03-29T05:43:22.763Z,4.00
2023-03-29T05:45:52.135Z,4.30
2023-03-29T05:48:19.183Z,4.63
2023-03-29T05:50:50.623Z,4.47
2023-03-29T05:53:19.548Z,4.72
2023-03-29T05:55:47.341Z,4.38
2023-03-29T05:58:20.599Z,4.45
2023-03-29T06:00:50.391Z,5.22
2023-03-29T06:03:34.842Z,5.00
2023-03-29T06:06:03.861Z,4.10
2023-03-29T06:08:33.817Z,3.95
2023-03-29T06:11:24.780Z,4.35
2023-03-29T06:14:09.597Z,3.80
2023-03-29T06:16:42.803Z,3.63
2023-03-29T06:19:10.784Z,3.92
2023-03-29T06:21:39.249Z,3.45
2023-03-29T06:24:07.684Z,4.03
2023-03-29T06:26:40.487Z,3.10
2023-03-29T06:29:09.225Z,3.55
2023-03-29T06:31:40.875Z,4.25
2023-03-29T06:34:13.778Z,3.80
2023-03-29T06:36:59.505Z,3.72
2023-03-29T06:39:27.082Z,3.40
2023-03-29T06:42:20.506Z,5.15
2023-03-29T06:45:07.321Z,4.25
2023-03-29T06:47:38.697Z,5.20
2023-03-29T06:50:06.587Z,3.53
2023-03-29T06:53:03.027Z,4.35
2023-03-29T06:55:31.724Z,3.75
2023-03-29T06:58:09.279Z,4.07
2023-03-29T07:00:39.442Z,4.07
2023-03-29T07:03:26.621Z,3.72
2023-03-29T07:06:03.819Z,3.38
2023-03-29T07:08:35.055Z,3.22
2023-03-29T07:11:05.831Z,3.83
2023-03-29T07:13:56.484Z,3.70
2023-03-29T07:16:24.234Z,3.13
2023-03-29T07:18:51.260Z,3.22
2023-03-29T07:21:37.953Z,4.00
2023-03-29T07:24:06.920Z,3.30
2023-03-29T07:26:36.094Z,3.15
2023-03-29T07:29:03.227Z,3.08
2023-03-29T07:31:31.922Z,2.88
2023-03-29T07:34:19.028Z,3.72
2023-03-29T07:36:45.993Z,3.63
2023-03-29T07:39:13.637Z,3.08
2023-03-29T07:41:44.954Z,3.30
2023-03-29T07:44:13.887Z,2.83
2023-03-29T07:46:43.261Z,2.97
2023-03-29T07:49:10.311Z,3.10
2023-03-29T07:51:38.148Z,2.97
2023-03-29T07:54:10.780Z,2.92
2023-03-29T07:56:37.888Z,2.83
2023-03-29T07:59:11.625Z,2.83
2023-03-29T08:01:41.277Z,3.53
2023-03-29T08:04:37.398Z,3.10
2023-03-29T08:07:15.806Z,3.47
2023-03-29T08:10:03.442Z,2.95
2023-03-29T08:12:56.805Z,3.03
2023-03-29T08:15:31.128Z,3.28
2023-03-29T08:17:58.409Z,3.20
2023-03-29T08:20:26.420Z,3.83
2023-03-29T08:22:57.156Z,3.03
2023-03-29T08:25:24.244Z,3.22
2023-03-29T08:27:54.206Z,2.70
2023-03-29T08:30:30.794Z,3.33
2023-03-29T08:32:59.183Z,3.25
2023-03-29T08:35:26.630Z,3.30
2023-03-29T08:38:11.215Z,3.03
2023-03-29T08:40:38.514Z,3.30
2023-03-29T08:43:32.143Z,3.17
2023-03-29T08:46:19.219Z,2.60
2023-03-29T08:48:58.868Z,2.70
2023-03-29T08:51:36.586Z,3.25
2023-03-29T08:54:14.780Z,3.83
2023-03-29T08:57:10.954Z,3.88
2023-03-29T08:59:46.849Z,3.65
2023-03-29T09:02:22.389Z,3.13
2023-03-29T09:04:59.995Z,5.10
2023-03-29T09:07:33.708Z,3.15
2023-03-29T09:10:01.232Z,3.30
2023-03-29T09:13:04.893Z,2.92
2023-03-29T09:15:48.474Z,3.50
2023-03-29T09:18:50.645Z,3.90
2023-03-29T09:21:29.306Z,2.50
2023-03-29T09:24:07.232Z,3.42
2023-03-29T09:26:47.768Z,3.38
2023-03-29T09:29:48.208Z,3.17
2023-03-29T09:32:24.348Z,2.20
2023-03-29T09:35:11.249Z,3.45
2023-03-29T09:37:41.618Z,3.00
2023-03-29T09:40:17.283Z,2.60
2023-03-29T09:42:55.397Z,3.25
2023-03-29T09:45:22.973Z,2.38
2023-03-29T09:47:57.708Z,2.42
2023-03-29T09:50:36.900Z,3.13
2023-03-29T09:53:08.406Z,3.28
2023-03-29T09:55:40.383Z,2.40
2023-03-29T09:58:27.857Z,2.20
2023-03-29T10:01:00.601Z,2.40
2023-03-29T10:03:30.003Z,3.22
2023-03-29T10:06:13.003Z,2.55
2023-03-29T10:08:51.347Z,2.53
2023-03-29T10:11:23.393Z,2.28
2023-03-29T10:13:55.034Z,2.20
2023-03-29T10:16:29.648Z,2.30
2023-03-29T10:18:56.808Z,2.22
2023-03-29T10:21:24.380Z,2.33
2023-03-29T10:23:59.382Z,2.85
2023-03-29T10:26:32.655Z,3.20
2023-03-29T10:29:03.015Z,2.97
2023-03-29T10:31:33.861Z,2.13
2023-03-29T10:34:07.001Z,2.55
2023-03-29T10:36:34.437Z,1.83
2023-03-29T10:39:06.180Z,2.30
2023-03-29T10:41:35.358Z,1.90
2023-03-29T10:44:03.986Z,2.08
2023-03-29T10:46:33.919Z,2.35
2023-03-29T10:49:10.406Z,2.20
2023-03-29T10:51:37.544Z,2.25
2023-03-29T10:54:06.260Z,1.85
2023-03-29T10:56:40.191Z,2.70
2023-03-29T10:59:21.624Z,2.75
2023-03-29T11:02:18.743Z,2.22
2023-03-29T11:05:20.287Z,2.28
2023-03-29T11:08:12.570Z,2.05
2023-03-29T11:10:53.971Z,2.05
2023-03-29T11:13:46.435Z,1.98
2023-03-29T11:16:34.897Z,1.98
2023-03-29T11:19:05.197Z,1.67
2023-03-29T11:21:41.564Z,2.08
2023-03-29T11:24:29.968Z,2.15
2023-03-29T11:27:30.861Z,2.10
2023-03-29T11:30:23.952Z,2.35
2023-03-29T11:33:05.883Z,1.60
2023-03-29T11:35:52.622Z,1.70
2023-03-29T11:38:19.540Z,2.25
2023-03-29T11:40:58.455Z,2.33
2023-03-29T11:43:34.387Z,1.80
2023-03-29T11:46:23.573Z,1.85
2023-03-29T11:49:03.008Z,1.70
2023-03-29T11:51:38.089Z,1.95
2023-03-29T11:54:29.991Z,1.90
2023-03-29T11:57:11.273Z,1.63
2023-03-29T11:59:49.825Z,1.80
2023-03-29T12:02:21.700Z,1.77
2023-03-29T12:04:57.875Z,2.67
2023-03-29T12:07:45.743Z,1.80
2023-03-29T12:10:18.688Z,2.85
2023-03-29T12:13:05.815Z,2.38
2023-03-29T12:15:43.127Z,1.75
2023-03-29T12:18:23.288Z,1.65
2023-03-29T12:20:57.541Z,2.92
2023-03-29T12:23:29.696Z,2.75
2023-03-29T12:26:05.963Z,3.00
2023-03-29T12:28:44.218Z,3.00
2023-03-29T12:31:25.077Z,2.85
2023-03-29T12:34:07.689Z,2.50
2023-03-29T12:37:15.050Z,2.53
2023-03-29T12:40:11.888Z,1.70
2023-03-29T12:43:05.410Z,2.28
2023-03-29T12:46:11.459Z,1.65
2023-03-29T12:48:41.648Z,1.52
2023-03-29T12:51:17.177Z,2.05
2023-03-29T12:54:07.593Z,2.25
2023-03-29T12:57:22.240Z,1.95
2023-03-29T12:59:50.698Z,1.90
2023-03-29T13:02:18.110Z,1.92
2023-03-29T13:04:57.183Z,2.90
2023-03-29T13:07:26.355Z,1.88
2023-03-29T13:10:03.234Z,1.88
2023-03-29T13:12:44.740Z,2.03
2023-03-29T13:15:14.817Z,1.88
2023-03-29T13:17:50.947Z,1.67
2023-03-29T13:20:39.496Z,1.88
2023-03-29T13:23:43.158Z,1.55
2023-03-29T13:26:41.486Z,1.90
2023-03-29T13:29:38.747Z,2.10
2023-03-29T13:32:25.987Z,1.80
2023-03-29T13:35:07.470Z,2.58
2023-03-29T13:37:37.561Z,3.42
2023-03-29T13:40:31.780Z,1.83
2023-03-29T13:43:11.794Z,2.70
2023-03-29T13:45:39.040Z,2.58
2023-03-29T13:48:27.166Z,2.97
2023-03-29T13:51:05.519Z,1.88
2023-03-29T13:53:40.224Z,1.80
2023-03-29T13:56:12.225Z,1.65
2023-03-29T13:58:48.001Z,1.70
2023-03-29T14:01:41.290Z,1.95
2023-03-29T14:04:13.670Z,1.80
2023-03-29T14:06:49.332Z,1.98
2023-03-29T14:09:18.443Z,1.83
2023-03-29T14:11:47.446Z,2.13
2023-03-29T14:14:14.881Z,2.72
2023-03-29T14:16:42.334Z,2.10
2023-03-29T14:19:16.740Z,1.67
2023-03-29T14:21:44.783Z,1.65
2023-03-29T14:24:16.685Z,2.00
2023-03-29T14:26:46.370Z,1.70
2023-03-29T14:29:13.714Z,2.22
2023-03-29T14:31:42.577Z,1.77
2023-03-29T14:34:19.263Z,1.67
2023-03-29T14:36:54.219Z,2.20
2023-03-29T14:39:23.444Z,1.83
2023-03-29T14:41:53.403Z,1.85
2023-03-29T14:44:23.461Z,2.15
2023-03-29T14:46:50.835Z,2.28
2023-03-29T14:49:20.415Z,2.70
2023-03-29T14:51:49.291Z,2.05
2023-03-29T14:54:33.950Z,2.50
2023-03-29T14:57:07.421Z,2.80
2023-03-29T14:59:37.143Z,2.65
2023-03-29T15:02:05.064Z,2.35
2023-03-29T15:04:34.187Z,2.08
2023-03-29T15:07:02.729Z,2.10
2023-03-29T15:09:34.113Z,2.47
2023-03-29T15:12:03.430Z,2.47
2023-03-29T15:14:36.966Z,1.77
2023-03-29T15:17:16.277Z,2.38
2023-03-29T15:19:43.371Z,2.10
2023-03-29T15:22:11.799Z,2.33
2023-03-29T15:24:47.700Z,2.60
2023-03-29T15:27:19.684Z,2.67
2023-03-29T15:29:48.047Z,2.50
2023-03-29T15:32:33.885Z,2.40
2023-03-29T15:35:03.436Z,2.20
2023-03-29T15:37:30.954Z,2.53
2023-03-29T15:39:58.514Z,2.53
2023-03-29T15:42:26.239Z,2.60
2023-03-29T15:44:56.638Z,2.47
2023-03-29T15:47:24.077Z,1.77
2023-03-29T15:49:51.684Z,3.35
2023-03-29T15:52:18.638Z,2.53
2023-03-29T15:54:45.838Z,3.20
2023-03-29T15:57:14.970Z,2.85
2023-03-29T15:59:43.346Z,3.22
2023-03-29T16:02:16.553Z,3.35
2023-03-29T16:04:43.931Z,2.20
2023-03-29T16:07:15.413Z,2.33
2023-03-29T16:09:43.270Z,2.30
2023-03-29T16:12:11.059Z,2.30
2023-03-29T16:14:38.696Z,2.33
2023-03-29T16:17:06.226Z,2.67
2023-03-29T16:19:33.861Z,2.65
2023-03-29T16:22:03.354Z,2.75
2023-03-29T16:24:32.099Z,2.15
2023-03-29T16:27:01.353Z,2.35
2023-03-29T16:29:28.795Z,2.50
2023-03-29T16:31:57.419Z,3.10
2023-03-29T16:34:25.094Z,2.65
2023-03-29T16:36:53.137Z,2.58
2023-03-29T16:39:20.287Z,2.72
2023-03-29T16:41:49.000Z,2.50
2023-03-29T16:44:20.730Z,2.50
2023-03-29T16:46:49.952Z,2.97
2023-03-29T16:49:18.291Z,2.70
2023-03-29T16:51:46.976Z,2.40
2023-03-29T16:54:15.277Z,2.40
2023-03-29T16:56:42.364Z,2.70
2023-03-29T16:59:09.710Z,2.10
2023-03-29T17:01:37.249Z,2.55
2023-03-29T17:04:05.087Z,2.10
2023-03-29T17:06:32.795Z,2.65
2023-03-29T17:09:00.728Z,2.35
2023-03-29T17:11:29.015Z,2.50
2023-03-29T17:13:56.460Z,2.92
2023-03-29T17:16:23.568Z,2.55
2023-03-29T17:18:50.883Z,2.50
2023-03-29T17:21:18.081Z,2.67
2023-03-29T17:23:45.068Z,2.70
2023-03-29T17:26:13.330Z,3.50
2023-03-29T17:28:40.457Z,2.53
2023-03-29T17:31:08.052Z,2.90
2023-03-29T17:33:36.259Z,2.83
2023-03-29T17:36:05.015Z,2.42
2023-03-29T17:38:34.256Z,3.33
2023-03-29T17:41:03.022Z,4.10
2023-03-29T17:43:30.874Z,2.53
2023-03-29T17:45:58.116Z,2.97
2023-03-29T17:48:25.189Z,3.13
2023-03-29T17:50:54.768Z,2.92
2023-03-29T17:53:21.707Z,2.92
2023-03-29T17:55:48.634Z,4.28
2023-03-29T17:58:16.580Z,3.25
2023-03-29T18:00:43.815Z,2.90
2023-03-29T18:03:11.120Z,3.13
2023-03-29T18:05:38.199Z,3.50
2023-03-29T18:08:05.753Z,2.80
2023-03-29T18:10:32.744Z,3.08
2023-03-29T18:13:00.694Z,2.97
2023-03-29T18:15:27.648Z,3.50
2023-03-29T18:17:54.657Z,3.08
2023-03-29T18:20:21.731Z,3.60
2023-03-29T18:22:48.748Z,3.85
2023-03-29T18:25:18.342Z,3.15
2023-03-29T18:27:45.637Z,3.33
2023-03-29T18:30:13.982Z,3.35
2023-03-29T18:32:41.067Z,3.30
2023-03-29T18:35:08.531Z,3.33
2023-03-29T18:37:36.317Z,3.83
2023-03-29T18:40:06.823Z,3.00
2023-03-29T18:42:34.113Z,3.05
2023-03-29T18:45:01.086Z,3.17
2023-03-29T18:47:29.076Z,3.38
2023-03-29T18:49:56.370Z,3.45
2023-03-29T18:52:23.704Z,3.00
2023-03-29T18:54:50.651Z,3.47
2023-03-29T18:57:17.768Z,3.83
2023-03-29T18:59:44.843Z,3.70
2023-03-29T19:02:12.152Z,4.78
2023-03-29T19:04:39.050Z,3.20
2023-03-29T19:07:06.834Z,3.33
2023-03-29T19:09:33.974Z,3.88
2023-03-29T19:12:01.175Z,3.53
2023-03-29T19:14:29.314Z,3.72
2023-03-29T19:16:56.651Z,3.22
2023-03-29T19:19:24.854Z,3.58
2023-03-29T19:21:52.845Z,3.72
2023-03-29T19:24:19.904Z,3.83
2023-03-29T19:26:47.980Z,3.22
2023-03-29T19:29:15.069Z,3.60
2023-03-29T19:31:42.113Z,3.78
2023-03-29T19:34:12.314Z,3.80
2023-03-29T19:36:39.393Z,3.35
2023-03-29T19:39:07.445Z,3.42
2023-03-29T19:41:34.458Z,3.08
2023-03-29T19:44:01.518Z,3.55
2023-03-29T19:46:29.048Z,3.08
2023-03-29T19:48:56.362Z,3.28
2023-03-29T19:51:26.772Z,3.53
2023-03-29T19:53:55.091Z,3.10
2023-03-29T19:56:23.722Z,2.97
2023-03-29T19:58:51.151Z,3.13
2023-03-29T20:01:21.025Z,3.10
2023-03-29T20:03:49.503Z,3.00
2023-03-29T20:06:18.064Z,3.35
2023-03-29T20:08:45.575Z,3.13
2023-03-29T20:11:14.176Z,2.83
2023-03-29T20:13:42.987Z,2.70
2023-03-29T20:16:14.420Z,2.72
2023-03-29T20:18:41.945Z,2.50
2023-03-29T20:21:09.937Z,2.75
2023-03-29T20:23:37.189Z,2.25
2023-03-29T20:26:04.229Z,2.38
2023-03-29T20:28:31.584Z,3.28
2023-03-29T20:31:04.918Z,3.13
2023-03-29T20:33:32.526Z,2.63
2023-03-29T20:35:59.755Z,2.53
2023-03-29T20:38:26.778Z,2.80
2023-03-29T20:40:55.438Z,2.25
2023-03-29T20:43:22.578Z,2.40
2023-03-29T20:45:52.640Z,2.70
2023-03-29T20:48:30.186Z,2.60
2023-03-29T20:50:57.790Z,1.95
2023-03-29T20:53:25.968Z,2.17
2023-03-29T20:55:53.199Z,2.33
2023-03-29T20:58:20.449Z,2.17
2023-03-29T21:00:48.545Z,2.00
2023-03-29T21:03:15.725Z,1.80
2023-03-29T21:05:43.563Z,1.73
2023-03-29T21:08:10.977Z,1.92
2023-03-29T21:10:38.146Z,2.17
2023-03-29T21:13:05.985Z,1.67
2023-03-29T21:15:33.302Z,1.70
2023-03-29T21:18:00.623Z,1.83
2023-03-29T21:20:27.751Z,1.98
2023-03-29T21:22:54.751Z,2.00
2023-03-29T21:25:22.170Z,1.85
2023-03-29T21:27:49.282Z,1.77
2023-03-29T21:30:16.459Z,1.80
2023-03-29T21:32:43.597Z,1.67
2023-03-29T21:35:11.063Z,1.90
2023-03-29T21:37:38.408Z,1.90
2023-03-29T21:40:06.254Z,2.70
2023-03-29T21:42:34.668Z,2.05
2023-03-29T21:45:02.074Z,1.55
2023-03-29T21:47:29.638Z,1.88
2023-03-29T21:49:56.564Z,1.55
2023-03-29T21:52:23.563Z,1.80
2023-03-29T21:54:50.610Z,1.80
2023-03-29T21:57:17.942Z,1.85
2023-03-29T21:59:44.997Z,2.05
2023-03-29T22:02:12.113Z,2.33
2023-03-29T22:04:39.481Z,2.00
2023-03-29T22:07:06.905Z,2.30
2023-03-29T22:09:37.679Z,1.95
2023-03-29T22:12:05.002Z,1.60
2023-03-29T22:14:35.070Z,1.92
2023-03-29T22:17:06.854Z,2.45
2023-03-29T22:19:44.326Z,1.98
2023-03-29T22:22:14.281Z,2.00
2023-03-29T22:24:42.441Z,1.85
2023-03-29T22:27:10.469Z,2.00
2023-03-29T22:29:37.451Z,2.42
2023-03-29T22:32:04.845Z,2.15
2023-03-29T22:34:32.383Z,1.88
2023-03-29T22:36:59.293Z,1.90
2023-03-29T22:39:26.910Z,1.73
2023-03-29T22:41:53.894Z,1.42
2023-03-29T22:44:21.227Z,2.00
2023-03-29T22:46:48.194Z,1.90
2023-03-29T22:49:15.310Z,2.03
2023-03-29T22:51:42.239Z,2.28
2023-03-29T22:54:09.152Z,2.22
2023-03-29T22:56:36.315Z,1.95
2023-03-29T22:59:03.310Z,2.03
2023-03-29T23:01:30.368Z,1.70
2023-03-29T23:03:57.416Z,1.90
2023-03-29T23:06:24.397Z,2.03
2023-03-29T23:08:51.382Z,1.73
2023-03-29T23:11:18.552Z,1.77
2023-03-29T23:13:48.710Z,1.95
2023-03-29T23:16:16.515Z,2.08
2023-03-29T23:18:43.539Z,1.92
2023-03-29T23:21:10.529Z,1.63
2023-03-29T23:23:38.323Z,2.08
2023-03-29T23:26:05.965Z,1.90
2023-03-29T23:28:34.656Z,1.70
2023-03-29T23:31:09.491Z,1.63
2023-03-29T23:33:40.386Z,1.90
2023-03-29T23:36:10.612Z,1.85
2023-03-29T23:38:38.859Z,1.80
2023-03-29T23:41:08.412Z,1.80
2023-03-29T23:43:40.557Z,2.13
2023-03-29T23:46:15.939Z,1.75
2023-03-29T23:48:48.986Z,1.90
2023-03-29T23:51:18.908Z,1.90
2023-03-29T23:53:46.584Z,1.92
2023-03-29T23:56:13.811Z,2.20
2023-03-29T23:58:41.047Z,1.83
